Etusivu
METAR-TAF:

METAR-TAF

Lentoasemat :

McCarranin kansainvälinen lentoasema

Las Vegas, Nevada, Yhdysvallat

Leveyspiiri: 36-04-44N, Pituuspiiri: 115-09-19W, korkeus merenpinnasta: 663 m

Tämänhetkinen sää

Tämä raportti tehtiin 47 minuuttia sitten, kello 20.56 UTC
Tuuli 3 kn eri suunnista
Lämpötila 26°C
Kosteus 13%
Ilmanpaine 1021 hPa
Näkyvyys: 16.1 km
selkeää

METAR: KLAS 222056Z VRB03KT 10SM CLR 26/M05 A3014 RMK AO2 SLP188 T02611050 58034

Aika: 14:43 (21:43 UTC)

Sääennuste

Tämä raportti tehtiin 15 minuuttia sitten, kello 21.28 UTC
Ennuste voimassa 22. päivästä klo 21 UTC - 23. päivään klo 24 UTC
Tuuli 5 kn idästä/kaakosta
Näkyvyys: 10 km
selkeää
From 23. päivästä klo 0300 UTC
Tuuli 6 kn etelästä/lounaasta
Näkyvyys: 10 km
selkeää

TAF: KLAS 222128Z 2221/2324 11005KT P6SM SKC FM230300 21006KT P6SM SKC

Säähavainnot ja -ennusteet yli 4000 lentoasemalta (METAR- ja TAF-raportit).

Käytössä olevat sääasemat on merkitty karttaan keltaisilla ja punaisilla pisteillä.

Aseta hiiri pisteen päälle nähdäksesi sääaseman nimen.

Klikkaa sitten nähdäksesi säähavainnot ja -ennusteet.

Kartan vaihtaminen: klikkaa mustalla rastilla varustettuja vihreitä pisteitä, niin voit zoomata sisään; viivalla varustettua vihreää pistettä, niin voit zoomata ulos tai vihreitä nuolia, niin pääset viereisille kartoille.


METAR-TAF: